Time;durP1;ratioP1;P1;durP2;ratioP2;P2;SDS_P1;SDS_P2;PMS_P1;PMS_P2;Temp;Humidity;BMP_temperature;BMP_pressure;BME280_temperature;BME280_humidity;BME280_pressure;Samples;Min_cycle;Max_cycle;Signal;HPM_P1;HPM_P2
2023/03/30 00:00:28;;;;;;;25.00;11.00;;;;;;;6.41;69.62;100369.12;109147;1260;73860;-58
2023/03/30 00:03:21;;;;;;;25.00;10.70;;;;;;;6.41;69.96;100372.24;109156;1256;67054;-58
2023/03/30 00:06:03;;;;;;;29.40;13.00;;;;;;;6.41;70.26;100368.59;109193;1260;66814;-58
2023/03/30 00:08:32;;;;;;;20.70;10.40;;;;;;;6.41;70.24;100365.65;109216;1256;74112;-58
2023/03/30 00:11:02;;;;;;;24.00;11.80;;;;;;;6.38;70.29;100368.31;109203;1258;83935;-58
2023/03/30 00:13:36;;;;;;;23.80;10.80;;;;;;;6.36;70.60;100370.61;109147;1256;72885;-58
2023/03/30 00:16:09;;;;;;;23.60;11.50;;;;;;;6.34;70.78;100366.13;109125;1258;66842;-58
2023/03/30 00:18:41;;;;;;;24.70;12.40;;;;;;;6.34;70.93;100364.40;109139;1257;66901;-58
2023/03/30 00:21:16;;;;;;;26.60;12.50;;;;;;;6.32;70.92;100362.55;109198;1256;74229;-58
2023/03/30 00:23:50;;;;;;;21.30;10.50;;;;;;;6.32;71.20;100362.34;109211;1256;81618;-58
2023/03/30 00:26:39;;;;;;;26.60;11.90;;;;;;;6.35;71.28;100355.00;109129;1257;72871;-58
2023/03/30 00:29:16;;;;;;;24.00;11.20;;;;;;;6.38;71.31;100350.95;109133;1257;67314;-58
2023/03/30 00:31:53;;;;;;;24.50;10.30;;;;;;;6.41;71.30;100348.30;109130;1257;66879;-58
2023/03/30 00:34:30;;;;;;;16.00;8.90;;;;;;;6.42;71.30;100343.41;109220;1256;72868;-58
2023/03/30 00:37:07;;;;;;;21.10;10.60;;;;;;;6.40;71.44;100343.45;109216;1257;83388;-58
2023/03/30 00:39:44;;;;;;;20.60;10.70;;;;;;;6.38;71.69;100343.67;109145;1257;73942;-58
2023/03/30 00:42:25;;;;;;;19.00;10.80;;;;;;;6.36;71.72;100337.80;109137;1256;66869;-58
2023/03/30 00:45:21;;;;;;;30.90;13.10;;;;;;;6.31;71.78;100337.38;109162;1256;66970;-58
2023/03/30 00:48:07;;;;;;;98.40;36.30;;;;;;;6.27;71.75;100334.02;109170;1256;74181;-58
2023/03/30 00:50:39;;;;;;;175.80;53.80;;;;;;;6.25;72.21;100330.05;109115;1256;82444;-58
2023/03/30 00:53:40;;;;;;;91.10;24.30;;;;;;;6.28;71.99;100325.84;109167;1257;73911;-58
2023/03/30 00:56:15;;;;;;;46.50;16.10;;;;;;;6.30;72.24;100320.41;108963;1258;67030;-58
2023/03/30 00:58:56;;;;;;;37.30;13.50;;;;;;;6.31;72.08;100316.74;109149;1256;66754;-58
2023/03/30 01:01:37;;;;;;;44.10;15.40;;;;;;;6.31;72.30;100317.24;109226;1256;72777;-58
2023/03/30 01:04:12;;;;;;;34.00;12.40;;;;;;;6.30;72.49;100316.96;109038;1256;83845;-58
2023/03/30 01:06:47;;;;;;;35.00;13.40;;;;;;;6.29;72.46;100313.66;109082;1257;72792;-57
2023/03/30 01:09:18;;;;;;;22.10;11.50;;;;;;;6.29;72.62;100310.20;109180;1257;66797;-58
2023/03/30 01:11:56;;;;;;;27.20;12.60;;;;;;;6.30;72.65;100309.30;109127;1255;66723;-57
2023/03/30 01:14:27;;;;;;;26.80;12.20;;;;;;;6.30;72.86;100308.27;109156;1257;74092;-57
2023/03/30 01:17:21;;;;;;;22.40;11.50;;;;;;;6.30;72.63;100306.53;109101;1256;83451;-58
2023/03/30 01:20:22;;;;;;;16.60;9.40;;;;;;;6.31;72.74;100299.91;109160;1256;73756;-58
2023/03/30 01:23:34;;;;;;;19.90;10.30;;;;;;;6.35;72.59;100290.13;109167;1256;66931;-58
2023/03/30 01:26:17;;;;;;;15.90;8.50;;;;;;;6.37;72.77;100286.92;109182;1255;66853;-58
2023/03/30 01:29:09;;;;;;;15.00;8.10;;;;;;;6.37;72.78;100281.54;109152;1257;73976;-58
2023/03/30 01:32:10;;;;;;;14.20;8.20;;;;;;;6.38;72.64;100278.92;109196;1256;83511;-58
2023/03/30 01:34:50;;;;;;;14.60;8.90;;;;;;;6.36;72.92;100278.11;109021;1257;72822;-58
2023/03/30 01:37:46;;;;;;;12.50;8.30;;;;;;;6.34;72.98;100276.05;109139;1258;66922;-58
2023/03/30 01:40:36;;;;;;;14.30;9.20;;;;;;;6.37;73.09;100277.56;109107;1257;66800;-58
2023/03/30 01:43:26;;;;;;;11.60;8.50;;;;;;;6.40;73.16;100275.77;109105;1257;74193;-58
2023/03/30 01:46:23;;;;;;;13.20;8.10;;;;;;;6.41;73.31;100272.45;109113;1255;83479;-58
2023/03/30 01:49:15;;;;;;;14.30;9.50;;;;;;;6.42;72.96;100265.48;109158;1256;72876;-58
2023/03/30 01:52:33;;;;;;;12.50;8.10;;;;;;;6.44;72.93;100258.15;109050;1257;66823;-58
2023/03/30 01:55:40;;;;;;;13.40;7.90;;;;;;;6.49;73.03;100251.80;108900;1256;66869;-58
2023/03/30 01:58:48;;;;;;;12.00;7.10;;;;;;;6.54;72.94;100251.33;109118;1257;75405;-58
2023/03/30 02:01:26;;;;;;;13.80;7.80;;;;;;;6.58;72.94;100246.37;109151;1257;83476;-58
2023/03/30 02:03:58;;;;;;;10.40;6.50;;;;;;;6.60;72.85;100244.23;109098;1256;72684;-58
2023/03/30 02:06:53;;;;;;;;;;;;;;;;;;;;;
2023/03/30 02:09:31;;;;;;;18.70;9.90;;;;;;;6.60;73.09;100244.77;109059;1256;66862;-58
2023/03/30 02:12:04;;;;;;;58.40;28.70;;;;;;;6.60;72.96;100243.19;109092;1256;74248;-58
2023/03/30 02:14:40;;;;;;;222.10;70.40;;;;;;;6.60;72.94;100239.23;109146;1256;83278;-58
2023/03/30 02:17:33;;;;;;;86.60;25.50;;;;;;;6.60;73.21;100230.89;109142;1256;74212;-58
2023/03/30 02:20:24;;;;;;;43.90;15.80;;;;;;;6.61;73.36;100228.25;109178;1256;66864;-58
2023/03/30 02:23:00;;;;;;;30.10;12.10;;;;;;;6.62;73.17;100229.78;109090;1257;66888;-58
2023/03/30 02:26:03;;;;;;;30.60;11.80;;;;;;;6.65;73.12;100224.67;109160;1256;74082;-58
2023/03/30 02:28:44;;;;;;;26.00;10.60;;;;;;;6.67;73.33;100222.02;106608;1256;3361726;-58
2023/03/30 02:31:28;;;;;;;22.60;10.30;;;;;;;6.68;73.69;100216.80;109153;1256;73754;-59
2023/03/30 02:35:02;;;;;;;21.40;10.30;;;;;;;6.67;73.82;100212.65;109081;1256;66924;-58
2023/03/30 02:38:09;;;;;;;19.10;10.50;;;;;;;6.62;74.07;100212.58;109144;1256;66841;-59
2023/03/30 02:40:54;;;;;;;16.40;9.30;;;;;;;6.58;74.23;100211.82;109150;1256;73172;-59
2023/03/30 02:43:40;;;;;;;15.00;9.40;;;;;;;6.55;74.52;100208.24;109100;1256;83265;-58
2023/03/30 02:46:57;;;;;;;14.40;9.10;;;;;;;6.52;74.79;100203.11;109054;1256;72457;-59
2023/03/30 02:49:47;;;;;;;11.50;7.70;;;;;;;6.54;74.89;100202.73;109145;1256;66759;-59
2023/03/30 02:52:50;;;;;;;12.00;7.50;;;;;;;6.53;75.19;100199.44;109102;1256;67247;-58
2023/03/30 02:55:51;;;;;;;;;;;;;;;;;;;;;
2023/03/30 02:58:52;;;;;;;9.90;7.00;;;;;;;6.52;75.68;100190.44;109110;1256;82412;-59
2023/03/30 03:01:57;;;;;;;9.80;7.10;;;;;;;6.52;75.84;100187.49;109161;1256;73967;-58
2023/03/30 03:04:42;;;;;;;9.50;7.30;;;;;;;6.49;76.36;100184.80;108958;1259;66948;-58
2023/03/30 03:07:41;;;;;;;9.10;7.20;;;;;;;6.46;76.44;100183.98;109002;1259;67139;-59
2023/03/30 03:10:15;;;;;;;9.60;7.10;;;;;;;6.42;76.60;100182.50;108969;1259;74118;-59
2023/03/30 03:12:53;;;;;;;9.80;7.80;;;;;;;6.39;76.83;100180.52;108997;1258;83539;-59
2023/03/30 03:15:36;;;;;;;12.00;7.90;;;;;;;6.34;76.69;100180.09;108921;1259;72791;-59
2023/03/30 03:18:17;;;;;;;9.20;6.70;;;;;;;6.33;76.75;100173.88;108952;1259;67006;-59
2023/03/30 03:20:49;;;;;;;11.70;7.30;;;;;;;6.33;77.10;100169.38;108959;1259;66842;-60
2023/03/30 03:23:27;;;;;;;7.50;5.90;;;;;;;6.31;77.20;100163.84;108995;1259;75178;-60
2023/03/30 03:26:04;;;;;;;8.60;6.30;;;;;;;6.34;77.39;100159.29;109003;1259;82578;-61
2023/03/30 03:28:44;;;;;;;8.00;5.40;;;;;;;6.34;77.48;100151.46;108928;1259;73854;-59
2023/03/30 03:31:20;;;;;;;8.40;6.00;;;;;;;6.33;77.65;100145.93;108969;1259;66964;-58
2023/03/30 03:33:56;;;;;;;9.60;6.70;;;;;;;6.35;77.90;100145.54;108992;1259;66816;-58
2023/03/30 03:36:54;;;;;;;25.60;15.20;;;;;;;6.34;77.96;100141.42;109016;1259;74170;-58
2023/03/30 03:39:32;;;;;;;92.30;42.90;;;;;;;6.32;78.16;100142.66;108946;1258;82733;-59
2023/03/30 03:42:37;;;;;;;77.90;33.40;;;;;;;6.32;78.26;100145.45;109101;1256;73864;-60
2023/03/30 03:45:27;;;;;;;;;;;;;;;;;;;;;
2023/03/30 03:48:24;;;;;;;10.60;7.70;;;;;;;6.35;78.50;100160.63;109097;1256;66928;-58
2023/03/30 03:51:28;;;;;;;;;;;;;;;;;;;;;
2023/03/30 03:54:26;;;;;;;7.60;5.80;;;;;;;6.39;79.02;100166.11;109073;1256;83478;-58
2023/03/30 03:57:03;;;;;;;9.20;5.90;;;;;;;6.38;78.81;100164.90;109077;1256;73847;-59
2023/03/30 03:59:43;;;;;;;11.70;7.00;;;;;;;6.39;79.06;100159.84;109156;1256;67007;-59
2023/03/30 04:02:28;;;;;;;13.70;6.80;;;;;;;6.37;79.29;100156.95;109111;1256;66838;-59
2023/03/30 04:05:32;;;;;;;;;;;;;;;;;;;;;
2023/03/30 04:08:28;;;;;;;9.30;6.90;;;;;;;6.28;79.77;100139.12;109148;1256;83355;-58
2023/03/30 04:11:32;;;;;;;9.90;7.10;;;;;;;6.23;80.16;100128.47;109085;1256;73848;-58
2023/03/30 04:14:40;;;;;;;;;;;;;;;;;;;;;
2023/03/30 04:17:45;;;;;;;10.60;6.30;;;;;;;6.20;80.30;100125.92;109090;1256;66944;-59
2023/03/30 04:21:08;;;;;;;;;;;;;;;;;;;;;
2023/03/30 04:24:30;;;;;;;;;;;;;;;;;;;;;
2023/03/30 04:28:05;;;;;;;6.90;5.50;;;;;;;6.25;80.77;100101.88;108647;1262;72871;-59
2023/03/30 04:31:12;;;;;;;9.50;6.60;;;;;;;6.21;81.27;100107.52;108463;1266;67060;-57
2023/03/30 04:34:12;;;;;;;8.80;6.80;;;;;;;6.21;81.57;100115.67;108366;1262;67567;-57
2023/03/30 04:37:12;;;;;;;;;;;;;;;;;;;;;
2023/03/30 04:39:59;;;;;;;10.00;7.20;;;;;;;6.21;81.75;100105.09;108444;1262;83340;-58
2023/03/30 04:43:02;;;;;;;14.50;8.40;;;;;;;6.27;81.36;100097.50;108423;1262;72720;-58
2023/03/30 04:46:00;;;;;;;12.60;8.70;;;;;;;6.28;81.27;100087.73;108512;1263;67117;-58
2023/03/30 04:48:45;;;;;;;13.60;8.00;;;;;;;6.30;81.45;100084.08;108528;1262;67512;-58
2023/03/30 04:51:39;;;;;;;9.40;6.40;;;;;;;6.29;81.57;100076.64;108464;1262;73248;-58
2023/03/30 04:54:30;;;;;;;;;;;;;;;6.27;81.85;100074.95;108532;1263;83392;-58
2023/03/30 04:57:38;;;;;;;11.80;8.50;;;;;;;6.25;82.16;100073.23;108455;1262;72867;-58
2023/03/30 05:00:27;;;;;;;11.50;7.60;;;;;;;6.23;82.33;100072.95;108509;1262;67135;-58
2023/03/30 05:03:12;;;;;;;13.00;8.80;;;;;;;6.21;82.29;100070.23;108793;1257;67675;-57
2023/03/30 05:06:05;;;;;;;12.10;8.90;;;;;;;6.23;82.44;100072.60;108843;1256;74124;-58
2023/03/30 05:08:34;;;;;;;19.60;12.10;;;;;;;6.29;82.08;100077.84;108815;1257;83551;-57
2023/03/30 05:11:15;;;;;;;19.80;11.50;;;;;;;6.31;82.14;100070.84;108918;1256;73318;-57
2023/03/30 05:14:07;;;;;;;9.60;6.30;;;;;;;6.36;82.28;100061.36;108709;1257;67796;-58
2023/03/30 05:17:01;;;;;;;10.40;6.60;;;;;;;6.39;82.37;100055.54;108896;1256;66971;-58
2023/03/30 05:19:58;;;;;;;19.60;11.40;;;;;;;6.43;82.46;100059.61;108761;1257;74685;-58
2023/03/30 05:22:48;;;;;;;40.80;22.10;;;;;;;6.47;82.52;100064.36;108816;1257;82507;-57
2023/03/30 05:25:50;;;;;;;;;;;;;;;;;;;;;
2023/03/30 05:28:51;;;;;;;28.40;14.80;;;;;;;6.53;82.90;100062.48;108843;1257;67748;-58
2023/03/30 05:31:41;;;;;;;23.00;12.80;;;;;;;6.56;82.97;100058.94;108841;1257;67059;-57
2023/03/30 05:34:12;;;;;;;15.30;9.80;;;;;;;6.63;82.71;100054.59;108953;1256;73081;-58
2023/03/30 05:37:09;;;;;;;11.70;8.60;;;;;;;6.66;82.60;100052.23;108795;1257;83355;-58
2023/03/30 05:39:52;;;;;;;11.50;7.40;;;;;;;6.72;82.77;100048.79;108784;1256;73765;-58
2023/03/30 05:42:41;;;;;;;10.50;6.30;;;;;;;6.77;82.89;100058.21;108858;1258;67774;-58
2023/03/30 05:45:29;;;;;;;8.20;6.20;;;;;;;6.79;82.89;100050.69;108889;1258;66975;-58
2023/03/30 05:48:23;;;;;;;10.80;7.10;;;;;;;6.80;82.97;100048.73;108879;1256;72713;-57
2023/03/30 05:51:27;;;;;;;8.60;6.30;;;;;;;6.83;83.19;100057.52;108568;1257;84018;-60
2023/03/30 05:54:21;;;;;;;8.40;6.90;;;;;;;6.86;83.04;100057.62;108830;1257;73746;-57
2023/03/30 05:57:18;;;;;;;10.80;6.30;;;;;;;6.90;82.99;100051.75;108807;1257;67050;-57
2023/03/30 06:00:12;;;;;;;10.20;6.20;;;;;;;7.00;82.78;100043.16;108849;1256;67263;-57
2023/03/30 06:02:51;;;;;;;9.40;6.20;;;;;;;7.07;82.56;100044.69;108783;1258;72690;-58
2023/03/30 06:05:28;;;;;;;8.90;6.00;;;;;;;7.14;82.61;100037.36;108856;1257;83936;-57
2023/03/30 06:08:00;;;;;;;8.10;6.10;;;;;;;7.21;82.62;100036.14;108931;1256;72487;-57
2023/03/30 06:10:32;;;;;;;10.20;5.90;;;;;;;7.23;82.96;100035.02;108871;1257;67212;-58
2023/03/30 06:13:03;;;;;;;8.90;6.70;;;;;;;7.28;83.03;100032.10;108771;1257;67613;-59
2023/03/30 06:15:44;;;;;;;6.90;5.90;;;;;;;7.32;82.92;100031.61;108832;1257;73826;-58
2023/03/30 06:18:19;;;;;;;10.90;6.20;;;;;;;7.35;82.90;100031.54;108865;1257;82526;-58
2023/03/30 06:20:56;;;;;;;11.80;6.40;;;;;;;7.40;82.65;100030.02;108876;1256;72824;-58
2023/03/30 06:23:27;;;;;;;11.00;6.60;;;;;;;7.50;82.32;100033.55;108870;1256;67107;-58
2023/03/30 06:25:58;;;;;;;9.20;6.20;;;;;;;7.56;82.16;100036.99;108879;1257;66928;-59
2023/03/30 06:28:30;;;;;;;7.00;5.60;;;;;;;7.59;82.17;100037.77;108893;1257;72783;-58
2023/03/30 06:31:01;;;;;;;9.80;6.10;;;;;;;7.58;82.37;100030.84;108831;1257;83111;-58
2023/03/30 06:33:31;;;;;;;12.40;8.50;;;;;;;7.62;82.40;100024.31;108830;1256;72841;-58
2023/03/30 06:36:03;;;;;;;32.90;20.90;;;;;;;7.66;82.51;100021.92;108866;1256;67807;-58
2023/03/30 06:38:32;;;;;;;25.60;16.00;;;;;;;7.69;82.43;100027.74;108923;1256;66943;-59
2023/03/30 06:41:07;;;;;;;27.50;15.90;;;;;;;7.72;82.18;100031.66;108827;1257;72243;-58
2023/03/30 06:43:37;;;;;;;41.60;21.60;;;;;;;7.76;82.12;100021.94;108827;1257;83395;-59
2023/03/30 06:46:17;;;;;;;42.70;22.60;;;;;;;7.80;82.01;100008.79;108826;1257;73857;-59
2023/03/30 06:48:50;;;;;;;105.70;46.00;;;;;;;7.86;82.06;100001.29;108885;1256;66978;-59
2023/03/30 06:51:42;;;;;;;143.20;59.30;;;;;;;7.96;82.03;100004.95;108759;1257;66978;-59
2023/03/30 06:54:11;;;;;;;178.00;70.60;;;;;;;8.04;82.08;100004.87;108904;1256;74198;-57
2023/03/30 06:56:48;;;;;;;102.60;41.40;;;;;;;8.15;82.31;99999.63;108839;1257;83517;-58
2023/03/30 06:59:17;;;;;;;247.80;91.70;;;;;;;8.32;82.17;99993.50;108795;1257;71958;-60
2023/03/30 07:02:05;;;;;;;151.40;58.40;;;;;;;8.47;82.27;99987.08;108880;1257;67874;-59
2023/03/30 07:05:00;;;;;;;84.00;25.40;;;;;;;8.60;81.83;99979.48;108832;1257;67084;-59
2023/03/30 07:07:36;;;;;;;36.50;13.80;;;;;;;8.70;81.43;99978.95;108898;1256;74218;-59
2023/03/30 07:10:09;;;;;;;45.90;15.10;;;;;;;8.76;81.18;99975.63;108887;1256;83384;-57
2023/03/30 07:12:39;;;;;;;14.60;7.40;;;;;;;8.82;80.94;99974.86;108807;1256;73941;-57
2023/03/30 07:15:08;;;;;;;;;;;;;;;8.84;80.81;99954.23;108846;1257;67031;-57
2023/03/30 07:17:37;;;;;;;31.70;10.80;;;;;;;8.94;81.13;99964.69;108852;1256;67210;-57
2023/03/30 07:20:07;;;;;;;27.90;12.80;;;;;;;9.01;80.63;99952.56;108892;1256;74180;-57
2023/03/30 07:22:46;;;;;;;34.30;13.60;;;;;;;9.09;80.57;99951.55;108882;1256;83456;-57
2023/03/30 07:25:15;;;;;;;22.70;9.90;;;;;;;9.21;80.45;99945.34;108842;1256;74438;-58
2023/03/30 07:27:44;;;;;;;25.80;9.70;;;;;;;9.32;80.31;99962.02;108863;1256;66958;-57
2023/03/30 07:30:14;;;;;;;17.80;9.50;;;;;;;9.40;80.06;99954.89;108735;1257;67017;-60
2023/03/30 07:32:52;;;;;;;29.20;12.00;;;;;;;9.42;80.03;99947.65;108867;1256;74179;-59
2023/03/30 07:35:25;;;;;;;26.40;9.90;;;;;;;9.45;79.78;99961.33;109034;1256;83470;-59
2023/03/30 07:37:53;;;;;;;20.00;9.20;;;;;;;9.43;79.74;99941.86;109013;1256;72641;-57
2023/03/30 07:40:33;;;;;;;48.40;16.40;;;;;;;9.50;79.77;99941.95;109043;1256;67041;-57
2023/03/30 07:43:02;;;;;;;19.60;9.30;;;;;;;9.59;79.75;99941.91;108910;1256;66970;-59
2023/03/30 07:45:31;;;;;;;22.40;10.40;;;;;;;9.69;79.51;99947.63;108927;1256;73825;-58
2023/03/30 07:48:00;;;;;;;18.00;8.90;;;;;;;9.81;79.30;99949.92;108920;1256;84111;-57
2023/03/30 07:50:29;;;;;;;18.80;9.10;;;;;;;9.96;79.32;99944.92;108876;1256;72846;-58
2023/03/30 07:52:59;;;;;;;22.20;10.70;;;;;;;10.09;78.98;99946.15;108783;1257;67389;-58
2023/03/30 07:55:28;;;;;;;20.00;11.20;;;;;;;10.15;78.53;99922.69;108898;1256;67846;-58
2023/03/30 07:58:03;;;;;;;29.70;14.30;;;;;;;10.26;78.86;99911.21;108926;1256;74108;-58
2023/03/30 08:00:31;;;;;;;12.00;8.20;;;;;;;10.43;79.05;99916.60;109034;1256;82635;-57
2023/03/30 08:03:32;;;;;;;16.80;8.50;;;;;;;10.59;78.14;99901.20;108717;1257;73833;-58
2023/03/30 08:06:05;;;;;;;20.10;9.80;;;;;;;10.61;77.51;99893.95;108775;1257;66893;-58
2023/03/30 08:08:39;;;;;;;18.20;10.70;;;;;;;10.60;77.57;99899.58;108831;1257;66974;-58
2023/03/30 08:11:09;;;;;;;30.90;12.80;;;;;;;10.61;77.84;99900.23;108828;1256;73474;-59
2023/03/30 08:13:40;;;;;;;28.40;15.30;;;;;;;10.61;77.79;99898.48;108776;1257;83404;-59
2023/03/30 08:16:09;;;;;;;33.70;14.20;;;;;;;10.58;77.82;99900.38;108847;1257;73319;-59
2023/03/30 08:18:40;;;;;;;25.00;12.50;;;;;;;10.57;77.80;99890.31;108831;1257;66886;-59
2023/03/30 08:21:09;;;;;;;;;;;;;;;10.63;78.14;99881.30;108904;1257;67147;-58
2023/03/30 08:23:38;;;;;;;22.30;10.80;;;;;;;10.79;77.89;99880.02;108872;1257;74372;-57
2023/03/30 08:26:06;;;;;;;18.10;9.00;;;;;;;10.95;77.71;99873.70;108889;1257;82422;-62
2023/03/30 08:28:35;;;;;;;25.60;11.20;;;;;;;11.09;77.56;99866.37;108871;1256;73842;-60
2023/03/30 08:31:05;;;;;;;17.20;11.40;;;;;;;11.20;77.28;99854.33;108925;1256;67130;-59
2023/03/30 08:33:34;;;;;;;;;;;;;;;11.30;77.09;99858.56;108916;1257;67553;-59
2023/03/30 08:36:03;;;;;;;16.50;9.20;;;;;;;11.41;76.77;99860.13;108880;1258;73076;-61
2023/03/30 08:38:31;;;;;;;26.20;12.00;;;;;;;11.58;76.89;99855.09;108868;1257;81702;-60
2023/03/30 08:40:59;;;;;;;15.10;10.10;;;;;;;11.78;76.81;99839.56;108897;1257;71814;-59
2023/03/30 08:43:49;;;;;;;15.60;10.30;;;;;;;12.00;76.70;99833.91;108929;1256;67714;-59
2023/03/30 08:46:18;;;;;;;16.50;9.70;;;;;;;12.13;75.96;99828.52;108867;1255;67095;-59
2023/03/30 08:48:47;;;;;;;15.50;9.10;;;;;;;12.15;75.34;99828.36;108945;1256;74135;-59
2023/03/30 08:51:30;;;;;;;17.80;10.20;;;;;;;12.25;75.36;99828.21;108907;1257;83318;-61
2023/03/30 08:54:02;;;;;;;14.90;9.70;;;;;;;12.50;75.68;99821.06;108901;1256;72993;-62
2023/03/30 08:56:40;;;;;;;13.10;8.30;;;;;;;12.78;75.29;99815.50;108792;1256;67002;-61
2023/03/30 08:59:30;;;;;;;11.20;7.70;;;;;;;13.05;74.76;99816.81;108859;1256;67019;-59
2023/03/30 09:02:00;;;;;;;14.70;9.10;;;;;;;13.19;74.05;99820.73;108900;1257;72459;-59
2023/03/30 09:04:34;;;;;;;14.50;8.70;;;;;;;13.22;73.54;99817.79;108796;1257;83341;-58
2023/03/30 09:07:20;;;;;;;15.00;8.30;;;;;;;13.21;73.03;99819.09;108854;1257;73900;-59
2023/03/30 09:09:52;;;;;;;23.00;10.00;;;;;;;13.21;72.61;99828.73;108864;1256;66995;-59
2023/03/30 09:12:36;;;;;;;17.30;9.10;;;;;;;13.26;72.50;99824.81;108967;1256;66926;-59
2023/03/30 09:15:15;;;;;;;19.00;8.90;;;;;;;13.38;72.48;99824.08;108968;1256;74185;-58
2023/03/30 09:17:50;;;;;;;15.00;8.10;;;;;;;13.46;71.98;99822.90;108829;1256;82369;-58
2023/03/30 09:20:20;;;;;;;13.20;8.40;;;;;;;13.50;71.55;99805.84;108812;1256;73730;-58
2023/03/30 09:22:48;;;;;;;;;;;;;;;13.57;71.65;99790.28;108860;1256;68003;-59
2023/03/30 09:25:31;;;;;;;19.20;8.40;;;;;;;13.68;71.49;99791.64;108943;1256;67315;-59
2023/03/30 09:28:09;;;;;;;19.20;8.70;;;;;;;13.74;71.37;99796.34;108887;1256;74220;-59
2023/03/30 09:30:44;;;;;;;10.80;7.40;;;;;;;13.85;71.26;99782.86;108841;1257;83367;-59
2023/03/30 09:33:44;;;;;;;10.30;7.10;;;;;;;14.07;71.68;99774.35;108868;1256;73881;-62
2023/03/30 09:36:13;;;;;;;10.10;6.70;;;;;;;14.42;71.63;99760.92;108936;1256;67258;-60
2023/03/30 09:38:43;;;;;;;13.20;8.00;;;;;;;14.70;71.35;99761.09;108922;1257;67772;-60
2023/03/30 09:41:23;;;;;;;10.10;6.70;;;;;;;14.86;70.70;99753.92;108901;1257;73119;-58
2023/03/30 09:43:51;;;;;;;11.60;7.60;;;;;;;15.05;70.42;99747.20;108936;1256;83474;-60
2023/03/30 09:46:20;;;;;;;11.70;7.20;;;;;;;15.27;70.10;99748.73;108846;1256;73196;-60
2023/03/30 09:48:49;;;;;;;10.00;6.40;;;;;;;15.44;69.46;99755.36;108953;1256;67634;-60
2023/03/30 09:51:26;;;;;;;13.20;7.00;;;;;;;15.63;69.42;99757.77;108864;1256;66958;-59
2023/03/30 09:54:00;;;;;;;7.30;5.20;;;;;;;15.85;68.81;99759.95;108880;1260;72994;-58
2023/03/30 09:56:37;;;;;;;9.90;5.20;;;;;;;15.96;67.98;99759.36;108991;1256;83700;-61
2023/03/30 09:59:19;;;;;;;;;;;;;;;16.22;67.80;99758.44;109055;1257;73729;-61
2023/03/30 10:01:47;;;;;;;8.40;5.10;;;;;;;16.59;67.45;99746.84;109078;1257;66960;-61
2023/03/30 10:04:17;;;;;;;9.30;6.40;;;;;;;16.92;67.58;99734.04;109109;1257;66840;-62
2023/03/30 10:06:49;;;;;;;9.60;5.60;;;;;;;17.21;66.39;99737.34;109085;1257;74090;-63
2023/03/30 10:09:21;;;;;;;10.50;6.20;;;;;;;17.26;65.47;99734.48;109086;1257;83449;-64
2023/03/30 10:11:54;;;;;;;9.80;5.20;;;;;;;17.29;64.91;99740.94;109087;1257;72774;-63
2023/03/30 10:14:31;;;;;;;9.20;5.10;;;;;;;17.26;64.40;99740.49;109022;1257;66937;-63
2023/03/30 10:17:00;;;;;;;8.20;5.00;;;;;;;17.26;64.30;99739.44;109144;1257;66893;-64
2023/03/30 10:19:29;;;;;;;8.00;4.50;;;;;;;17.28;64.00;99732.20;109114;1257;73503;-63
2023/03/30 10:22:03;;;;;;;9.00;4.60;;;;;;;17.41;63.61;99731.27;109030;1257;82605;-63
2023/03/30 10:24:32;;;;;;;11.30;5.00;;;;;;;17.48;63.32;99732.80;109078;1258;73746;-63
2023/03/30 10:27:09;;;;;;;8.10;5.20;;;;;;;17.59;63.25;99729.70;109027;1257;67533;-63
2023/03/30 10:29:37;;;;;;;9.30;5.50;;;;;;;17.98;63.03;99719.09;109058;1257;66838;-63
2023/03/30 10:32:24;;;;;;;9.20;4.70;;;;;;;18.20;62.67;99711.66;109090;1257;74195;-63
2023/03/30 10:34:54;;;;;;;10.00;5.70;;;;;;;18.29;62.41;99710.23;109084;1257;82507;-63
2023/03/30 10:37:32;;;;;;;;;;;;;;;18.41;61.98;99704.16;109027;1257;71412;-63
2023/03/30 10:40:04;;;;;;;9.40;4.40;;;;;;;18.43;61.74;99709.29;109107;1256;66848;-63
2023/03/30 10:42:32;;;;;;;7.50;4.50;;;;;;;18.40;61.21;99716.41;109116;1257;67152;-63
2023/03/30 10:45:03;;;;;;;7.50;4.40;;;;;;;18.34;60.85;99712.31;109101;1257;74471;-63
2023/03/30 10:47:56;;;;;;;5.80;3.50;;;;;;;18.26;60.43;99704.85;109060;1257;83338;-63
2023/03/30 10:50:46;;;;;;;7.40;3.80;;;;;;;18.23;60.41;99703.80;109087;1258;72779;-63
2023/03/30 10:53:20;;;;;;;6.70;3.70;;;;;;;18.43;60.43;99705.77;108984;1259;66842;-63
2023/03/30 10:55:54;;;;;;;9.30;3.60;;;;;;;18.83;60.25;99709.95;109104;1258;66795;-63
2023/03/30 10:58:26;;;;;;;6.90;3.30;;;;;;;19.26;59.69;99706.95;109118;1257;74517;-63
2023/03/30 11:00:59;;;;;;;5.50;3.20;;;;;;;19.70;59.00;99704.71;109070;1257;82492;-63
2023/03/30 11:03:31;;;;;;;6.60;2.80;;;;;;;20.07;58.23;99698.38;109045;1258;73109;-64
2023/03/30 11:06:20;;;;;;;8.60;3.10;;;;;;;20.40;57.51;99697.73;109001;1257;66867;-63
2023/03/30 11:08:51;;;;;;;9.50;2.80;;;;;;;20.59;56.68;99699.64;109042;1257;67191;-64
2023/03/30 11:11:30;;;;;;;8.40;3.10;;;;;;;20.84;55.61;99701.50;109074;1258;73282;-63
2023/03/30 11:14:07;;;;;;;8.00;3.40;;;;;;;20.98;54.22;99702.31;109034;1258;83298;-64
2023/03/30 11:16:38;;;;;;;4.30;3.20;;;;;;;21.14;54.41;99706.73;109008;1257;73911;-64
2023/03/30 11:19:17;;;;;;;6.60;3.20;;;;;;;21.33;54.61;99708.54;109107;1258;66931;-64
2023/03/30 11:22:01;;;;;;;6.70;3.60;;;;;;;21.14;52.89;99711.88;109121;1257;66807;-64
2023/03/30 11:24:29;;;;;;;9.70;4.20;;;;;;;20.91;52.49;99720.23;109097;1257;73576;-63
2023/03/30 11:27:17;;;;;;;5.80;3.30;;;;;;;20.44;51.95;99723.48;109104;1258;82849;-64
2023/03/30 11:30:13;;;;;;;8.70;3.10;;;;;;;19.94;52.16;99723.64;109032;1257;73745;-64
2023/03/30 11:32:54;;;;;;;5.60;2.90;;;;;;;19.58;52.13;99728.49;109049;1261;66933;-64
2023/03/30 11:35:42;;;;;;;7.40;2.70;;;;;;;19.18;52.05;99733.25;109136;1256;66863;-66
2023/03/30 11:38:20;;;;;;;7.00;2.70;;;;;;;18.84;52.16;99732.58;109100;1256;74373;-68
2023/03/30 11:41:06;;;;;;;5.00;2.90;;;;;;;18.65;52.61;99737.58;109168;1256;81948;-69
2023/03/30 11:43:34;;;;;;;5.90;2.40;;;;;;;18.54;53.27;99743.42;109171;1256;73813;-66
2023/03/30 11:46:09;;;;;;;5.80;2.10;;;;;;;18.48;53.41;99746.38;109143;1257;66874;-68
2023/03/30 11:48:52;;;;;;;8.10;2.60;;;;;;;18.31;52.97;99750.23;109176;1256;67402;-69
2023/03/30 11:51:45;;;;;;;7.20;2.50;;;;;;;17.94;52.68;99754.21;109180;1256;74116;-68
2023/03/30 11:54:29;;;;;;;5.50;2.40;;;;;;;17.66;53.23;99760.56;109095;1256;83386;-68
2023/03/30 11:57:12;;;;;;;7.30;2.50;;;;;;;17.45;53.55;99761.48;109195;1256;73748;-68
2023/03/30 12:00:08;;;;;;;6.70;2.50;;;;;;;17.23;53.91;99756.76;109117;1256;66902;-68
2023/03/30 12:03:21;;;;;;;8.00;2.60;;;;;;;17.00;54.08;99750.17;109153;1256;67324;-68
2023/03/30 12:06:14;;;;;;;6.70;3.20;;;;;;;16.81;54.43;99745.94;109092;1256;73037;-67
2023/03/30 12:08:45;;;;;;;9.70;3.00;;;;;;;16.74;54.93;99745.02;109131;1257;82593;-68
2023/03/30 12:11:34;;;;;;;5.40;2.80;;;;;;;16.78;55.35;99746.34;109092;1260;73723;-69
2023/03/30 12:14:08;;;;;;;9.40;3.30;;;;;;;16.84;55.39;99743.79;109078;1257;67062;-70
2023/03/30 12:16:40;;;;;;;6.90;3.00;;;;;;;16.78;54.70;99742.64;109030;1257;66825;-70
2023/03/30 12:19:08;;;;;;;6.90;3.10;;;;;;;16.68;54.89;99738.02;109192;1256;73397;-70
2023/03/30 12:21:48;;;;;;;7.50;3.00;;;;;;;16.65;55.01;99739.47;109209;1256;83041;-70
2023/03/30 12:24:19;;;;;;;6.40;3.10;;;;;;;16.61;55.12;99732.35;109164;1256;73794;-69
2023/03/30 12:26:48;;;;;;;5.70;2.70;;;;;;;16.59;55.20;99727.91;109150;1256;66881;-69
2023/03/30 12:29:50;;;;;;;6.20;3.40;;;;;;;16.61;55.61;99728.64;109216;1256;66721;-70
2023/03/30 12:32:25;;;;;;;5.40;3.10;;;;;;;16.59;55.60;99729.84;108847;1262;73021;-70
2023/03/30 12:34:56;;;;;;;8.60;3.50;;;;;;;16.46;55.32;99739.80;108844;1262;83513;-69
2023/03/30 12:37:35;;;;;;;9.10;3.30;;;;;;;16.29;55.45;99728.70;108765;1262;74048;-64
2023/03/30 12:40:09;;;;;;;10.40;3.50;;;;;;;16.18;56.09;99732.09;108764;1262;67382;-63